Terminal Aerodrome Forecast
Issued by NWS

Home | Current Version | Previous Version | Text Only | Print | Product List | Glossary Off
Versions: 1 2 3 4 5 6 7 8 9 10 11 12 13 14 15 16 17 18

674
FTUS43 KIWX 232017 AAA
TAFSBN
TAF AMD
KSBN 232017Z 2320/2418 34013KT P6SM SKC
     FM232200 33010KT P6SM BKN100
     FM241200 36006KT P6SM SCT025=

USA.gov is the U.S. government's official web portal to all federal, state and local government web resources and services.